Time;durP1;ratioP1;P1;durP2;ratioP2;P2;SDS_P1;SDS_P2;PMS_P1;PMS_P2;Temp;Humidity;BMP_temperature;BMP_pressure;BME280_temperature;BME280_humidity;BME280_pressure;Samples;Min_cycle;Max_cycle;Signal;HPM_P1;HPM_P2
2022/03/25 00:00:30;;;;;;;;;48.75;40.00;;;;;15.96;29.29;101957.25;5094757;27;46549;-84
2022/03/25 00:02:55;;;;;;;;;49.50;40.50;;;;;15.89;29.41;101946.28;5094798;27;46283;-85
2022/03/25 00:05:21;;;;;;;;;53.00;41.00;;;;;15.85;29.21;101941.31;5094707;27;45659;-86
2022/03/25 00:07:46;;;;;;;;;55.75;41.75;;;;;15.86;29.43;101950.94;5095389;27;45579;-84
2022/03/25 00:14:14;;;;;;;;;54.50;42.50;;;;;15.79;29.69;101950.53;5057886;27;46181;-83
2022/03/25 00:16:41;;;;;;;;;47.50;38.00;;;;;15.81;29.40;101958.34;5054895;28;45644;-85
2022/03/25 00:19:06;;;;;;;;;47.75;37.75;;;;;15.80;29.49;101961.94;5055482;28;45661;-84
2022/03/25 00:21:32;;;;;;;;;53.25;42.75;;;;;15.74;29.49;101957.94;5055198;28;46652;-86
2022/03/25 00:23:57;;;;;;;;;55.50;42.00;;;;;15.73;29.43;101956.25;5055352;28;45609;-86
2022/03/25 00:26:22;;;;;;;;;52.50;40.00;;;;;15.73;29.60;101953.59;5055620;28;45541;-83
2022/03/25 00:28:48;;;;;;;;;54.75;43.00;;;;;15.68;29.53;101953.09;5055686;28;45781;-84
2022/03/25 00:31:13;;;;;;;;;54.50;42.75;;;;;15.66;29.76;101952.34;5058649;28;45647;-84
2022/03/25 00:33:42;;;;;;;;;54.00;42.75;;;;;15.64;29.58;101950.78;5058463;28;45593;-85
2022/03/25 00:36:10;;;;;;;;;52.75;42.25;;;;;15.64;29.72;101953.41;5058066;28;45957;-83
2022/03/25 00:38:35;;;;;;;;;51.00;40.75;;;;;15.57;29.60;101939.78;5057717;28;45685;-83
2022/03/25 00:41:00;;;;;;;;;49.50;40.00;;;;;15.58;29.76;101951.22;5057526;28;46439;-82
2022/03/25 00:43:26;;;;;;;;;49.25;38.75;;;;;15.56;29.85;101958.38;5057719;28;45542;-85
2022/03/25 00:45:51;;;;;;;;;52.25;42.00;;;;;15.52;29.88;101953.31;5057464;28;45551;-83
2022/03/25 00:48:17;;;;;;;;;56.75;43.00;;;;;15.51;29.87;101956.91;5057498;28;45479;-82
2022/03/25 00:50:42;;;;;;;;;56.50;43.00;;;;;15.48;29.72;101948.34;5089757;27;47322;-82
2022/03/25 00:53:08;;;;;;;;;55.25;43.00;;;;;15.44;29.82;101950.34;5057449;28;46120;-84
2022/03/25 00:58:55;;;;;;;;;54.25;42.25;;;;;15.36;29.99;101955.31;5057768;28;45520;-82
2022/03/25 01:01:21;;;;;;;;;55.75;41.50;;;;;15.33;29.79;101952.06;5059132;28;45703;-83
2022/03/25 01:03:46;;;;;;;;;55.25;42.00;;;;;15.31;29.81;101954.78;5058294;28;46577;-84
2022/03/25 01:06:12;;;;;;;;;52.25;42.75;;;;;15.25;30.12;101949.09;5059083;28;45626;-85
2022/03/25 01:08:37;;;;;;;;;57.75;44.25;;;;;15.25;30.06;101941.16;5058059;28;45938;-84
2022/03/25 01:14:25;;;;;;;;;52.75;41.75;;;;;15.21;30.53;101952.91;5074734;28;46200;-83
2022/03/25 01:16:50;;;;;;;;;55.50;41.50;;;;;15.19;30.12;101949.50;5059303;28;45564;-83
2022/03/25 01:19:15;;;;;;;;;51.50;41.00;;;;;15.15;30.46;101933.03;5077481;28;45550;-84
2022/03/25 01:21:41;;;;;;;;;56.25;44.75;;;;;15.11;30.43;101934.22;5077128;28;45514;-84
2022/03/25 01:24:06;;;;;;;;;56.00;43.00;;;;;15.10;30.46;101930.72;5077219;28;46639;-82
2022/03/25 01:26:32;;;;;;;;;55.00;42.25;;;;;15.12;30.67;101942.00;5075447;28;45650;-84
2022/03/25 01:28:58;;;;;;;;;56.50;44.00;;;;;15.09;30.71;101933.47;5077651;28;45502;-82
2022/03/25 01:31:24;;;;;;;;;57.25;44.00;;;;;15.03;30.46;101924.16;5097698;27;45683;-83
2022/03/25 01:33:50;;;;;;;;;54.75;42.50;;;;;15.05;30.90;101929.34;5097858;27;46172;-85
2022/03/25 01:36:15;;;;;;;;;55.75;41.75;;;;;14.97;30.65;101919.31;5097578;27;45977;-81
2022/03/25 01:38:42;;;;;;;;;54.50;42.75;;;;;14.99;30.70;101927.13;5079317;27;45780;-81
2022/03/25 01:44:30;;;;;;;;;57.00;42.00;;;;;14.89;30.68;101923.44;5097369;27;46342;-82
2022/03/25 01:46:58;;;;;;;;;60.50;45.50;;;;;14.86;30.67;101923.63;5096002;27;45761;-83
2022/03/25 01:49:24;;;;;;;;;54.25;42.50;;;;;14.79;31.08;101909.19;5097973;27;45677;-82
2022/03/25 01:51:52;;;;;;;;;57.25;42.75;;;;;14.82;30.92;101924.78;5097818;27;45620;-83
2022/03/25 01:57:40;;;;;;;;;57.25;44.25;;;;;14.69;31.38;101917.69;5097222;27;45540;-83
2022/03/25 02:00:06;;;;;;;;;56.00;45.50;;;;;14.67;31.44;101924.03;5098071;27;45691;-82
2022/03/25 02:02:32;;;;;;;;;58.50;44.75;;;;;14.62;31.53;101908.53;5098459;27;46532;-82
2022/03/25 02:04:59;;;;;;;;;56.50;44.50;;;;;14.60;31.42;101917.47;5099887;27;46134;-82
2022/03/25 02:07:25;;;;;;;;;59.25;42.50;;;;;14.58;31.64;101914.94;5079358;27;45631;-82
2022/03/25 02:13:12;;;;;;;;;60.50;45.25;;;;;14.54;31.39;101918.72;5097349;27;46056;-82
2022/03/25 02:15:40;;;;;;;;;56.75;45.00;;;;;14.51;31.82;101918.09;5097397;27;46180;-81
2022/03/25 02:18:09;;;;;;;;;53.25;42.50;;;;;14.47;31.78;101920.06;5097337;27;45846;-81
2022/03/25 02:20:37;;;;;;;;;53.50;41.00;;;;;14.47;32.08;101919.22;5097634;27;45497;-80
2022/03/25 02:23:04;;;;;;;;;53.50;44.00;;;;;14.45;31.71;101921.13;5098041;27;45576;-80
2022/03/25 02:28:51;;;;;;;;;52.00;42.75;;;;;14.36;32.03;101914.63;5096343;27;45518;-82
2022/03/25 02:31:17;;;;;;;;;56.00;45.25;;;;;14.32;32.30;101917.56;5096712;27;45564;-81
2022/03/25 02:33:43;;;;;;;;;53.25;39.50;;;;;14.28;32.03;101916.94;5096417;27;46608;-80
2022/03/25 02:36:09;;;;;;;;;55.50;42.25;;;;;14.21;32.25;101913.84;5095856;27;46021;-82
2022/03/25 02:38:35;;;;;;;;;55.50;44.50;;;;;14.22;32.49;101912.91;5095732;27;45577;-81
2022/03/25 02:44:22;;;;;;;;;59.75;45.50;;;;;14.17;32.24;101922.06;5095709;27;46201;-80
2022/03/25 02:46:48;;;;;;;;;54.50;42.00;;;;;14.15;32.65;101922.16;5095714;27;46304;-81
2022/03/25 02:49:14;;;;;;;;;58.25;45.00;;;;;14.11;32.88;101918.03;5095841;27;45546;-83
2022/03/25 02:51:39;;;;;;;;;54.00;43.75;;;;;14.07;32.81;101927.09;5095538;27;45519;-81
2022/03/25 02:54:05;;;;;;;;;54.50;40.25;;;;;14.02;32.78;101923.91;5094437;27;46425;-80
2022/03/25 02:59:53;;;;;;;;;54.25;42.00;;;;;13.97;33.08;101930.41;5095383;27;45612;-81
2022/03/25 03:02:18;;;;;;;;;57.50;45.00;;;;;13.92;32.88;101922.81;5095691;27;45576;-80
2022/03/25 03:04:44;;;;;;;;;47.25;36.00;;;;;13.88;32.71;101922.16;5095736;27;46547;-81
2022/03/25 03:07:09;;;;;;;;;56.25;43.00;;;;;13.88;33.07;101921.28;5095349;27;45816;-81
2022/03/25 03:09:34;;;;;;;;;55.75;44.75;;;;;13.83;33.27;101915.47;5095544;27;45564;-80
2022/03/25 03:15:22;;;;;;;;;53.50;44.00;;;;;13.79;33.34;101927.16;5064219;27;45666;-81
2022/03/25 03:17:49;;;;;;;;;57.75;43.50;;;;;13.74;33.24;101916.91;5054261;28;45546;-81
2022/03/25 03:20:17;;;;;;;;;61.00;46.75;;;;;13.77;33.47;101923.75;5054663;28;45756;-81
2022/03/25 03:22:43;;;;;;;;;54.50;43.75;;;;;13.73;33.44;101924.91;5036415;28;45939;-82
2022/03/25 03:25:10;;;;;;;;;53.50;39.25;;;;;13.70;33.35;101923.31;5054360;28;45479;-80
2022/03/25 03:27:38;;;;;;;;;54.75;43.25;;;;;13.66;33.66;101919.16;5054592;28;46117;-83
2022/03/25 03:30:06;;;;;;;;;58.50;42.00;;;;;13.62;33.90;101907.16;5054637;28;45816;-83
2022/03/25 03:32:33;;;;;;;;;59.00;43.50;;;;;13.64;33.64;101913.19;5054621;28;45614;-81
2022/03/25 03:34:58;;;;;;;;;51.75;41.00;;;;;13.63;33.56;101924.66;5054355;28;46828;-81
2022/03/25 03:37:24;;;;;;;;;61.50;45.50;;;;;13.59;33.73;101914.41;5054469;28;45771;-81
2022/03/25 03:39:53;;;;;;;;;52.75;41.25;;;;;13.59;33.81;101919.66;5053036;28;45549;-81
2022/03/25 03:45:40;;;;;;;;;52.00;40.75;;;;;13.50;34.16;101907.91;5053945;28;45606;-82
2022/03/25 03:48:06;;;;;;;;;58.75;42.75;;;;;13.49;34.19;101913.28;5053946;28;46490;-82
2022/03/25 03:50:31;;;;;;;;;51.25;41.00;;;;;13.45;34.10;101913.47;5054381;28;45708;-82
2022/03/25 03:52:57;;;;;;;;;58.50;45.00;;;;;13.47;34.31;101912.53;5053132;28;45517;-83
2022/03/25 03:55:22;;;;;;;;;57.50;45.50;;;;;13.44;34.29;101917.03;5052834;28;47378;-81
2022/03/25 03:57:47;;;;;;;;;54.75;42.75;;;;;13.42;33.96;101913.66;5054713;28;45600;-82
2022/03/25 04:00:13;;;;;;;;;56.25;43.75;;;;;13.40;34.17;101912.91;5054827;28;45786;-83
2022/03/25 04:02:41;;;;;;;;;56.50;41.50;;;;;13.41;34.53;101913.75;5054655;28;45696;-84
2022/03/25 04:05:06;;;;;;;;;49.75;37.75;;;;;13.36;34.39;101908.78;5056355;28;45649;-82
2022/03/25 04:07:32;;;;;;;;;53.75;43.00;;;;;13.38;34.52;101916.59;5057611;28;45754;-81
2022/03/25 04:09:58;;;;;;;;;53.00;42.75;;;;;13.33;34.52;101905.50;5073207;28;46161;-82
2022/03/25 04:15:45;;;;;;;;;54.25;41.50;;;;;13.33;34.51;101918.66;5070548;27;46215;-82
2022/03/25 04:18:10;;;;;;;;;53.75;43.00;;;;;13.33;34.07;101913.41;5059147;28;45594;-81
2022/03/25 04:20:36;;;;;;;;;55.50;41.00;;;;;13.30;34.70;101916.19;5077669;28;45814;-82
2022/03/25 04:23:01;;;;;;;;;54.75;43.75;;;;;13.29;34.69;101915.34;5059496;28;45628;-82
2022/03/25 04:25:27;;;;;;;;;56.50;44.25;;;;;13.29;34.97;101915.34;5077648;28;45812;-82
2022/03/25 04:31:14;;;;;;;;;56.75;44.25;;;;;13.25;34.75;101918.28;5077574;28;45919;-82
2022/03/25 04:33:40;;;;;;;;;54.50;42.00;;;;;13.26;34.86;101918.19;5077811;28;45570;-81
2022/03/25 04:36:06;;;;;;;;;50.50;41.25;;;;;13.20;34.79;101917.72;5077341;28;45553;-81
2022/03/25 04:38:31;;;;;;;;;57.00;45.50;;;;;13.23;34.68;101917.50;5077379;28;45687;-82
2022/03/25 04:40:56;;;;;;;;;58.25;43.50;;;;;13.21;34.97;101915.00;5077530;28;45665;-83
2022/03/25 04:43:22;;;;;;;;;55.25;42.50;;;;;13.23;34.98;101920.13;5059067;28;45771;-82
2022/03/25 04:45:48;;;;;;;;;59.25;44.25;;;;;13.19;34.82;101924.75;5077515;28;45684;-82
2022/03/25 04:48:14;;;;;;;;;63.75;45.50;;;;;13.21;35.15;101938.69;5058733;28;46078;-81
2022/03/25 04:50:40;;;;;;;;;60.25;45.00;;;;;13.15;35.24;101923.25;5077231;28;45498;-82
2022/03/25 04:53:05;;;;;;;;;55.00;44.50;;;;;13.15;35.03;101927.66;5058918;28;45917;-79
2022/03/25 04:55:31;;;;;;;;;55.75;40.75;;;;;13.12;34.94;101919.97;5077524;28;45545;-82
2022/03/25 05:01:18;;;;;;;;;56.75;43.75;;;;;13.08;35.30;101935.06;5078643;28;45818;-82
2022/03/25 05:03:43;;;;;;;;;56.00;41.50;;;;;13.06;35.57;101944.00;5078857;28;45435;-82
2022/03/25 05:06:09;;;;;;;;;58.25;44.25;;;;;13.03;35.72;101942.38;5077836;28;46665;-81
2022/03/25 05:08:34;;;;;;;;;54.75;42.75;;;;;12.98;35.60;101945.28;5077790;28;45606;-82
2022/03/25 05:11:00;;;;;;;;;49.25;37.50;;;;;12.96;36.02;101941.03;5077742;28;45566;-81
2022/03/25 05:13:25;;;;;;;;;56.75;42.25;;;;;12.93;36.24;101941.25;5078334;28;45580;-82
2022/03/25 05:15:51;;;;;;;;;57.25;42.25;;;;;12.91;35.97;101951.00;5077474;28;46466;-80
2022/03/25 05:18:16;;;;;;;;;56.75;44.50;;;;;12.88;35.92;101946.78;5059163;28;46338;-81
2022/03/25 05:20:42;;;;;;;;;55.00;42.50;;;;;12.83;35.78;101937.47;5078517;28;45802;-80
2022/03/25 05:23:08;;;;;;;;;53.25;42.00;;;;;12.82;35.94;101954.19;5079666;28;45638;-79
2022/03/25 05:25:34;;;;;;;;;52.50;40.25;;;;;12.79;36.42;101957.00;5082313;28;45655;-80
2022/03/25 05:31:21;;;;;;;;;50.00;38.50;;;;;12.70;36.18;101955.72;5078324;28;45977;-80
2022/03/25 05:33:47;;;;;;;;;55.75;45.25;;;;;12.66;36.64;101950.75;5078696;28;45506;-83
2022/03/25 05:36:12;;;;;;;;;59.00;44.75;;;;;12.60;36.31;101946.69;5077614;28;46178;-81
2022/03/25 05:38:39;;;;;;;;;55.25;46.00;;;;;12.56;36.60;101943.41;5077457;28;45618;-81
2022/03/25 05:41:04;;;;;;;;;55.25;41.00;;;;;12.55;36.41;101948.75;5077205;28;45780;-82
2022/03/25 05:46:52;;;;;;;;;55.25;42.25;;;;;12.55;36.47;101959.25;5077051;28;45511;-82
2022/03/25 05:49:18;;;;;;;;;60.00;46.25;;;;;12.52;36.73;101960.25;5077249;28;45984;-82
2022/03/25 05:51:43;;;;;;;;;56.00;45.25;;;;;12.50;36.82;101956.91;5059457;28;45619;-82
2022/03/25 05:54:09;;;;;;;;;61.50;44.25;;;;;12.48;36.84;101950.88;5077896;28;45767;-83
2022/03/25 05:56:34;;;;;;;;;54.00;42.00;;;;;12.46;37.38;101946.66;5077769;28;46452;-81
2022/03/25 05:59:00;;;;;;;;;56.25;45.25;;;;;12.46;37.49;101959.78;5077495;28;45808;-82
2022/03/25 06:01:25;;;;;;;;;53.75;41.50;;;;;12.41;37.12;101957.44;5076487;28;45681;-83
2022/03/25 06:03:51;;;;;;;;;28.75;12.75;;;;;12.43;37.20;101957.31;5078226;28;45745;-83
2022/03/25 06:06:16;;;;;;;;;60.75;47.00;;;;;12.41;37.22;101962.69;5078164;28;45822;-83
2022/03/25 06:08:42;;;;;;;;;56.50;44.00;;;;;12.41;37.45;101962.69;5077520;28;46029;-81
2022/03/25 06:11:07;;;;;;;;;57.50;44.75;;;;;12.38;37.15;101964.63;5077643;28;45735;-83
2022/03/25 06:16:54;;;;;;;;;53.50;45.50;;;;;12.38;37.54;101969.88;5074441;27;46065;-83
2022/03/25 06:19:19;;;;;;;;;63.00;47.25;;;;;12.34;37.97;101971.00;5077135;28;45562;-82
2022/03/25 06:21:45;;;;;;;;;58.00;45.25;;;;;12.31;37.45;101971.19;5077120;28;45624;-79
2022/03/25 06:24:11;;;;;;;;;52.25;41.75;;;;;12.35;37.53;101985.84;5077088;28;45557;-79
2022/03/25 06:26:36;;;;;;;;;59.00;43.25;;;;;12.35;37.48;101984.06;5075734;28;46320;-81
2022/03/25 06:29:03;;;;;;;;;53.50;42.75;;;;;12.32;37.69;101978.97;5076503;28;45598;-82
2022/03/25 06:31:28;;;;;;;;;59.75;45.25;;;;;12.34;37.70;101982.38;5058385;28;45670;-80
2022/03/25 06:33:54;;;;;;;;;56.75;45.00;;;;;12.34;37.51;101984.13;5077051;28;45637;-81
2022/03/25 06:36:20;;;;;;;;;58.50;45.50;;;;;12.37;37.68;101989.22;5077334;28;46324;-82
2022/03/25 06:38:45;;;;;;;;;55.00;43.50;;;;;12.33;37.46;101985.91;5075989;28;45596;-82
2022/03/25 06:41:11;;;;;;;;;58.50;45.00;;;;;12.33;37.80;101985.06;5076524;28;45598;-81
2022/03/25 06:46:58;;;;;;;;;60.75;46.75;;;;;12.34;37.80;101994.66;5076143;28;45664;-83
2022/03/25 06:49:24;;;;;;;;;58.50;45.00;;;;;12.33;37.69;101996.44;5080315;28;46066;-79
2022/03/25 06:51:49;;;;;;;;;58.25;46.75;;;;;12.33;37.80;102001.69;5076373;28;45613;-81
2022/03/25 06:54:15;;;;;;;;;59.75;44.00;;;;;12.31;37.67;101994.84;5075298;28;45511;-80
2022/03/25 06:56:41;;;;;;;;;58.25;44.50;;;;;12.31;38.00;101995.66;5057337;28;47147;-80
2022/03/25 07:02:28;;;;;;;;;60.00;46.25;;;;;12.35;37.80;101999.84;5075594;28;45676;-81
2022/03/25 07:04:54;;;;;;;;;56.75;43.25;;;;;12.33;38.04;101999.06;5075903;28;45593;-82
2022/03/25 07:07:26;;;;;;;;;61.00;47.25;;;;;12.37;38.00;102003.19;5075750;28;46581;-79
2022/03/25 07:09:54;;;;;;;;;57.50;42.75;;;;;12.40;38.03;102018.81;5076025;28;46225;-81
2022/03/25 07:12:20;;;;;;;;;57.00;44.50;;;;;12.40;37.92;102013.56;5075856;28;46015;-81
2022/03/25 07:14:46;;;;;;;;;62.25;46.25;;;;;12.36;38.03;102004.13;5075033;28;45641;-82
2022/03/25 07:17:11;;;;;;;;;58.75;43.25;;;;;12.41;38.16;102001.25;5074038;28;46480;-82
2022/03/25 07:19:36;;;;;;;;;57.25;42.75;;;;;12.42;38.09;102014.31;5074891;28;46010;-79
2022/03/25 07:22:02;;;;;;;;;56.50;43.25;;;;;12.41;37.95;102006.53;5074473;28;46099;-82
2022/03/25 07:24:28;;;;;;;;;59.50;47.00;;;;;12.46;38.26;102009.75;5074829;28;45687;-81
2022/03/25 07:26:55;;;;;;;;;58.25;45.75;;;;;12.47;38.12;102017.50;5074005;28;46856;-81
2022/03/25 07:32:42;;;;;;;;;61.75;47.25;;;;;12.49;37.95;102026.16;5074523;28;45533;-80
2022/03/25 07:35:09;;;;;;;;;57.50;45.00;;;;;12.50;37.92;102022.63;5075047;28;45451;-83
2022/03/25 07:37:39;;;;;;;;;64.50;48.00;;;;;12.53;38.09;102034.72;5074767;28;45598;-81
2022/03/25 07:40:09;;;;;;;;;63.50;49.25;;;;;12.54;37.92;102033.78;5056390;28;48216;-82
2022/03/25 07:42:35;;;;;;;;;61.50;46.00;;;;;12.56;37.95;102042.47;5075056;28;45968;-84
2022/03/25 07:45:01;;;;;;;;;58.00;44.25;;;;;12.56;38.13;102034.56;5075763;28;45606;-85
2022/03/25 07:47:27;;;;;;;;;63.75;49.00;;;;;12.54;37.80;102045.16;5057021;28;48329;-85
2022/03/25 07:49:52;;;;;;;;;63.25;47.50;;;;;12.53;37.93;102038.19;5057991;28;47353;-80
2022/03/25 07:52:18;;;;;;;;;62.00;45.25;;;;;12.57;37.82;102036.28;5079772;28;45802;-83
2022/03/25 07:54:44;;;;;;;;;58.00;44.25;;;;;12.57;37.69;102029.22;5079227;28;45521;-83
2022/03/25 07:57:09;;;;;;;;;61.25;46.00;;;;;12.62;37.58;102042.13;5078293;28;45524;-84
2022/03/25 08:02:56;;;;;;;;;64.25;50.00;;;;;12.68;37.61;102056.69;5073895;28;45722;-84
2022/03/25 08:05:25;;;;;;;;;61.50;48.75;;;;;12.73;37.42;102039.72;5074237;28;45773;-84
2022/03/25 08:07:54;;;;;;;;;61.25;45.25;;;;;12.76;37.32;102043.94;5075044;28;45563;-86
2022/03/25 08:10:23;;;;;;;;;58.50;46.50;;;;;12.84;37.37;102054.88;5075151;28;46106;-83
2022/03/25 08:12:50;;;;;;;;;61.00;47.00;;;;;12.87;37.51;102042.41;5075098;28;45664;-84
2022/03/25 08:15:16;;;;;;;;;52.50;38.50;;;;;12.94;37.10;102056.06;5075385;28;45498;-83
2022/03/25 08:17:46;;;;;;;;;64.50;48.00;;;;;12.98;37.15;102060.19;5074031;28;46264;-83
2022/03/25 08:20:15;;;;;;;;;58.50;47.75;;;;;13.01;37.15;102049.47;5056384;28;47524;-82
2022/03/25 08:22:41;;;;;;;;;62.50;49.00;;;;;13.05;36.99;102045.75;5055824;28;45525;-81
2022/03/25 08:27:50;;;;;;;;;63.75;48.25;;;;;13.11;36.59;102055.94;5073362;28;45714;-82
2022/03/25 08:30:16;;;;;;;;;64.00;49.00;;;;;13.18;36.64;102051.16;5083067;28;46168;-83
2022/03/25 08:32:42;;;;;;;;;66.00;49.00;;;;;13.18;36.72;102048.53;5068169;28;45791;-85
2022/03/25 08:35:08;;;;;;;;;65.75;49.25;;;;;13.27;36.17;102056.75;5078751;28;45419;-83
2022/03/25 08:37:34;;;;;;;;;58.25;45.75;;;;;13.32;36.25;102046.78;5076008;28;45619;-84
2022/03/25 08:39:59;;;;;;;;;60.75;48.00;;;;;13.37;36.25;102054.41;5075516;28;45730;-82
2022/03/25 08:42:25;;;;;;;;;61.75;49.50;;;;;13.41;36.40;102043.59;5076026;28;45703;-83
2022/03/25 08:48:12;;;;;;;;;61.25;48.75;;;;;13.53;36.05;102056.97;5073229;28;45564;-82
2022/03/25 08:50:38;;;;;;;;;65.75;48.50;;;;;13.59;36.23;102053.97;5074950;28;45969;-82
2022/03/25 08:53:04;;;;;;;;;59.75;46.50;;;;;13.63;35.74;102048.41;5077215;28;45708;-83
2022/03/25 08:55:30;;;;;;;;;66.75;50.75;;;;;13.66;35.96;102053.50;5077141;28;45733;-82
2022/03/25 08:57:57;;;;;;;;;65.00;48.25;;;;;13.77;35.74;102053.69;5058563;28;48270;-82
2022/03/25 09:03:43;;;;;;;;;63.75;48.25;;;;;13.91;35.58;102052.00;5077158;28;45595;-82
2022/03/25 09:06:10;;;;;;;;;63.75;50.25;;;;;13.96;35.28;102055.19;5059068;28;45765;-82
2022/03/25 09:08:35;;;;;;;;;63.50;48.00;;;;;13.99;35.14;102050.56;5077576;28;46711;-83
2022/03/25 09:11:02;;;;;;;;;62.00;48.00;;;;;14.10;34.85;102057.81;5077687;28;45704;-82
2022/03/25 09:13:27;;;;;;;;;64.00;49.25;;;;;14.13;34.71;102047.94;5058443;28;45964;-82
2022/03/25 09:15:53;;;;;;;;;66.00;50.00;;;;;14.21;34.76;102044.81;5076893;28;45717;-84
2022/03/25 09:18:19;;;;;;;;;62.75;48.75;;;;;14.28;34.82;102046.13;5076776;28;45683;-83
2022/03/25 09:20:44;;;;;;;;;62.75;47.00;;;;;14.38;34.40;102047.25;5076690;28;45567;-82
2022/03/25 09:23:10;;;;;;;;;63.25;47.75;;;;;14.46;34.20;102045.00;5077018;28;45649;-83
2022/03/25 09:25:35;;;;;;;;;63.50;47.75;;;;;14.51;34.57;102042.91;5076589;28;45575;-80
2022/03/25 09:28:01;;;;;;;;;62.25;47.50;;;;;14.61;34.37;102051.91;5076521;28;46256;-81
2022/03/25 09:33:48;;;;;;;;;62.75;50.50;;;;;14.80;33.70;102037.50;5076310;28;45662;-81
2022/03/25 09:36:15;;;;;;;;;62.75;49.50;;;;;14.87;33.81;102046.72;5076683;28;45652;-83
2022/03/25 09:38:40;;;;;;;;;65.50;49.50;;;;;14.93;33.47;102046.31;5076239;28;46386;-81
2022/03/25 09:41:07;;;;;;;;;63.00;47.50;;;;;15.02;33.55;102043.88;5076402;28;46098;-81
2022/03/25 09:43:34;;;;;;;;;62.25;47.75;;;;;15.07;33.20;102039.16;5076371;28;46165;-83
2022/03/25 09:46:00;;;;;;;;;64.00;49.00;;;;;15.16;33.24;102037.69;5076336;28;45676;-83
2022/03/25 09:48:25;;;;;;;;;62.00;48.75;;;;;15.23;33.14;102040.75;5091644;27;48624;-82
2022/03/25 09:50:50;;;;;;;;;63.75;49.25;;;;;15.34;33.26;102046.16;5076041;28;45739;-82
2022/03/25 09:53:18;;;;;;;;;66.75;50.75;;;;;15.42;32.80;102042.06;5076175;28;45719;-79
2022/03/25 09:55:46;;;;;;;;;67.25;51.00;;;;;15.48;32.63;102039.00;5076254;28;45605;-79
2022/03/25 09:58:18;;;;;;;;;59.00;48.00;;;;;15.57;32.05;102047.25;5075884;28;45495;-81
2022/03/25 10:04:06;;;;;;;;;67.75;50.75;;;;;15.72;32.29;102044.41;5075832;28;45711;-78
2022/03/25 10:06:45;;;;;;;;;62.75;48.75;;;;;15.79;32.36;102043.03;5075705;28;45883;-78
2022/03/25 10:09:21;;;;;;;;;64.75;49.00;;;;;15.87;32.36;102038.03;5075732;28;46288;-80
2022/03/25 10:11:46;;;;;;;;;68.00;50.50;;;;;15.91;32.01;102033.41;5075765;28;46346;-78
2022/03/25 10:14:18;;;;;;;;;65.00;50.00;;;;;16.02;31.92;102035.28;5075803;28;45471;-78
2022/03/25 10:16:45;;;;;;;;;64.75;50.25;;;;;16.08;31.63;102043.63;5075163;28;45593;-78
2022/03/25 10:19:12;;;;;;;;;63.50;47.75;;;;;16.15;31.72;102036.91;5075733;28;45476;-78
2022/03/25 10:21:57;;;;;;;;;28.75;22.75;;;;;16.22;31.45;102039.97;5075664;28;46231;-79
2022/03/25 10:24:44;;;;;;;;;64.25;49.50;;;;;16.28;31.80;102034.25;5075716;28;45859;-78
2022/03/25 10:27:10;;;;;;;;;65.50;49.50;;;;;16.32;31.63;102031.28;5075662;28;45812;-79
2022/03/25 10:29:36;;;;;;;;;63.00;48.50;;;;;16.39;31.14;102042.25;5075293;28;46372;-80
2022/03/25 10:32:13;;;;;;;;;67.75;51.75;;;;;16.44;31.20;102044.56;5075299;28;46142;-78
2022/03/25 10:34:41;;;;;;;;;66.25;50.00;;;;;16.50;31.48;102034.38;5075452;28;45522;-80
2022/03/25 10:37:11;;;;;;;;;63.25;49.25;;;;;16.58;31.40;102039.94;5075259;28;45633;-77
2022/03/25 10:39:38;;;;;;;;;60.25;48.75;;;;;16.64;31.26;102031.59;5075552;28;46343;-78
2022/03/25 10:42:06;;;;;;;;;71.75;54.00;;;;;16.70;30.59;102031.16;5074847;28;46180;-78
2022/03/25 10:44:43;;;;;;;;;68.50;50.25;;;;;16.77;30.97;102027.09;5074889;28;45543;-79
2022/03/25 10:47:14;;;;;;;;;66.00;49.00;;;;;16.83;30.45;102027.59;5056376;28;45868;-80
2022/03/25 10:49:43;;;;;;;;;67.25;48.75;;;;;16.89;29.71;102028.00;5074776;28;45624;-78
2022/03/25 10:52:27;;;;;;;;;68.00;48.25;;;;;16.94;29.97;102030.28;5074705;28;45701;-78
2022/03/25 10:55:21;;;;;;;;;65.25;51.00;;;;;17.00;30.08;102030.66;5074718;28;45649;-78
2022/03/25 10:57:48;;;;;;;;;63.25;48.50;;;;;17.07;29.97;102033.69;5074701;28;45968;-79
2022/03/25 11:00:13;;;;;;;;;65.00;51.00;;;;;17.14;30.35;102034.91;5056120;28;46693;-79
2022/03/25 11:02:39;;;;;;;;;64.75;49.00;;;;;17.19;30.24;102033.59;5055974;28;46410;-79
2022/03/25 11:05:06;;;;;;;;;65.00;49.00;;;;;17.20;29.63;102021.22;5074484;28;45615;-79
2022/03/25 11:07:32;;;;;;;;;62.75;48.50;;;;;17.27;30.25;102025.09;5074585;28;45820;-76
2022/03/25 11:10:00;;;;;;;;;67.00;50.00;;;;;17.35;29.92;102020.03;5055784;28;47130;-80
2022/03/25 11:12:26;;;;;;;;;65.25;49.50;;;;;17.41;29.86;102024.84;5074321;28;46162;-79
2022/03/25 11:14:51;;;;;;;;;65.75;49.25;;;;;17.46;30.13;102016.53;5074252;28;45549;-80
2022/03/25 11:17:19;;;;;;;;;60.75;48.25;;;;;17.51;29.76;102020.53;5073963;28;45737;-79
2022/03/25 11:19:46;;;;;;;;;67.25;51.00;;;;;17.55;30.24;102013.16;5074477;28;46879;-78
2022/03/25 11:22:12;;;;;;;;;67.75;50.00;;;;;17.58;30.16;102008.50;5074267;28;46259;-78
2022/03/25 11:24:45;;;;;;;;;69.50;53.00;;;;;17.61;29.79;102007.44;5056148;28;46060;-79
2022/03/25 11:27:19;;;;;;;;;66.00;49.75;;;;;17.68;29.74;102008.66;5074273;28;45716;-79
2022/03/25 11:29:48;;;;;;;;;66.25;51.25;;;;;17.73;29.86;102008.28;5074202;28;45639;-78
2022/03/25 11:32:16;;;;;;;;;62.25;50.75;;;;;17.72;29.99;101995.97;5074033;28;46171;-78
2022/03/25 11:34:54;;;;;;;;;68.50;52.00;;;;;17.80;30.26;102001.53;5077623;28;45534;-80
2022/03/25 11:37:28;;;;;;;;;66.75;52.00;;;;;17.81;29.92;102001.44;5082098;28;45585;-84
2022/03/25 11:40:12;;;;;;;;;66.75;52.00;;;;;17.87;29.62;102000.06;5074751;28;45906;-83
2022/03/25 11:42:39;;;;;;;;;65.00;50.75;;;;;17.89;29.60;102004.28;5056568;28;48468;-82
2022/03/25 11:45:25;;;;;;;;;64.00;48.75;;;;;17.94;28.78;101995.97;5055726;28;45787;-81
2022/03/25 11:48:19;;;;;;;;;65.00;49.75;;;;;17.98;29.44;101994.75;5073967;28;45743;-83
2022/03/25 11:50:46;;;;;;;;;65.00;50.75;;;;;18.00;29.42;101983.06;5072069;28;45547;-81
2022/03/25 11:53:11;;;;;;;;;62.25;48.00;;;;;18.08;28.82;101989.56;5074050;28;46268;-84
2022/03/25 11:56:01;;;;;;;;;64.00;48.33;;;;;18.13;28.55;101992.69;5073906;28;45671;-82
2022/03/25 11:58:38;;;;;;;;;67.00;52.00;;;;;18.14;28.10;101991.72;5074133;28;45713;-82
2022/03/25 12:01:16;;;;;;;;;63.50;48.00;;;;;18.19;28.33;101982.41;5073922;28;45647;-82
2022/03/25 12:03:49;;;;;;;;;61.50;48.50;;;;;18.22;28.01;101984.84;5074230;28;46540;-82
2022/03/25 12:06:18;;;;;;;;;61.00;48.25;;;;;18.26;28.58;101978.31;5073701;28;45883;-85
2022/03/25 12:09:07;;;;;;;;;64.50;47.25;;;;;18.34;27.53;101972.38;5074337;28;45534;-82
2022/03/25 12:11:51;;;;;;;;;58.50;46.25;;;;;18.39;27.11;101973.69;5074019;28;45656;-85
2022/03/25 12:14:19;;;;;;;;;64.00;48.00;;;;;18.40;27.42;101962.09;5073636;28;45577;-82
2022/03/25 12:16:47;;;;;;;;;61.75;45.75;;;;;18.41;27.25;101950.50;5072519;27;45696;-87
2022/03/25 12:19:25;;;;;;;;;57.75;46.00;;;;;18.52;27.65;101962.88;5074056;28;45617;-84
2022/03/25 12:21:54;;;;;;;;;61.25;46.50;;;;;18.57;27.63;101963.38;5074416;28;46288;-86
2022/03/25 12:24:20;;;;;;;;;56.75;44.75;;;;;18.64;26.80;101958.41;5074146;28;46263;-84
2022/03/25 12:26:58;;;;;;;;;58.25;45.25;;;;;18.67;26.90;101959.00;5077632;28;45669;-82
2022/03/25 12:29:36;;;;;;;;;56.00;44.75;;;;;18.74;26.97;101960.16;5079432;28;45667;-81
2022/03/25 12:32:07;;;;;;;;;59.75;45.00;;;;;18.82;27.52;101960.38;5078408;28;45791;-82
2022/03/25 12:34:41;;;;;;;;;63.50;47.00;;;;;18.88;27.20;101945.72;5059023;28;48199;-84
2022/03/25 12:37:13;;;;;;;;;63.00;48.50;;;;;18.95;26.77;101949.53;5077026;28;45608;-84